WUK7BU EGGW-EPPO
Flight info
| Callsign | WUK7BU |
|---|---|
| Flight time | 1h 39m |
| Altitude | 35000 |
| Route | MATCH Q295 BRAIN M197 REDFA L620 TACHA DCT GARLU DCT VIBIS L619 PODUS DCT RADEL/N0463F310 L619 ALUKA DCT DENKO |
| Aircraft | A21N/M-SDE2E3FGHIJ1RWXY/LB1 |
Departure
| Time | 2026-04-23 17:00 |
|---|---|
| Airport | London Luton Airport (EGGW) |
Arrival
| Time | 2026-04-23 18:39 |
|---|---|
| Airport | Poznań-Ławica Airport (EPPO) |
| Time | Latitude | Longitude | Altitude | Speed | Heading |
|---|---|---|---|---|---|
| 2026-04-23 16:30 | 51.88274 | -0.37370 | 521 ft | 0 kts | 341° |
| 2026-04-23 16:51 | 51.88252 | -0.37358 | 521 ft | 4 kts | 341° |
| 2026-04-23 16:51 | 51.88231 | -0.37352 | 521 ft | 4 kts | 32° |
| 2026-04-23 16:52 | 51.88220 | -0.37374 | 521 ft | 2 kts | 71° |
| 2026-04-23 16:52 | 51.88214 | -0.37405 | 521 ft | 0 kts | 71° |
| 2026-04-23 16:54 | 51.88215 | -0.37399 | 522 ft | 2 kts | 72° |
| 2026-04-23 16:54 | 51.88226 | -0.37348 | 522 ft | 7 kts | 71° |
| 2026-04-23 16:55 | 51.88222 | -0.37248 | 522 ft | 12 kts | 140° |
| 2026-04-23 16:55 | 51.88141 | -0.37199 | 518 ft | 13 kts | 162° |
| 2026-04-23 16:55 | 51.88058 | -0.37154 | 514 ft | 13 kts | 161° |
| 2026-04-23 16:55 | 51.87971 | -0.37109 | 514 ft | 13 kts | 162° |
| 2026-04-23 16:56 | 51.87876 | -0.37059 | 515 ft | 16 kts | 160° |
| 2026-04-23 16:56 | 51.87761 | -0.36996 | 523 ft | 19 kts | 158° |
| 2026-04-23 16:56 | 51.87648 | -0.36943 | 530 ft | 16 kts | 200° |
| 2026-04-23 16:56 | 51.87607 | -0.37113 | 527 ft | 18 kts | 255° |
| 2026-04-23 16:57 | 51.87578 | -0.37315 | 527 ft | 17 kts | 272° |
| 2026-04-23 16:57 | 51.87580 | -0.37424 | 529 ft | 10 kts | 246° |
| 2026-04-23 16:57 | 51.87520 | -0.37501 | 527 ft | 12 kts | 232° |
| 2026-04-23 16:57 | 51.87488 | -0.37636 | 528 ft | 14 kts | 255° |
| 2026-04-23 16:58 | 51.87461 | -0.37790 | 528 ft | 15 kts | 253° |
| 2026-04-23 16:58 | 51.87434 | -0.37941 | 529 ft | 13 kts | 254° |
| 2026-04-23 16:58 | 51.87378 | -0.38060 | 528 ft | 14 kts | 203° |
| 2026-04-23 16:58 | 51.87293 | -0.38114 | 528 ft | 8 kts | 176° |
| 2026-04-23 16:59 | 51.87249 | -0.38077 | 529 ft | 8 kts | 86° |
| 2026-04-23 16:59 | 51.87252 | -0.38053 | 529 ft | 1 kts | 77° |
| 2026-04-23 16:59 | 51.87295 | -0.37804 | 530 ft | 59 kts | 73° |
| 2026-04-23 16:59 | 51.87476 | -0.36772 | 530 ft | 131 kts | 74° |
| 2026-04-23 17:00 | 51.87753 | -0.35195 | 1066 ft | 145 kts | 75° |
| 2026-04-23 17:00 | 51.88036 | -0.33599 | 1947 ft | 151 kts | 75° |
| 2026-04-23 17:00 | 51.88340 | -0.31886 | 2359 ft | 168 kts | 75° |
| 2026-04-23 17:00 | 51.88660 | -0.29952 | 2756 ft | 187 kts | 75° |
| 2026-04-23 17:01 | 51.89010 | -0.27850 | 3341 ft | 200 kts | 75° |
| 2026-04-23 17:01 | 51.89414 | -0.25539 | 3604 ft | 230 kts | 76° |
| 2026-04-23 17:01 | 51.89758 | -0.22894 | 4083 ft | 248 kts | 88° |
| 2026-04-23 17:01 | 51.89500 | -0.20138 | 4685 ft | 251 kts | 110° |
| 2026-04-23 17:02 | 51.88954 | -0.18491 | 4885 ft | 254 kts | 125° |
| 2026-04-23 17:02 | 51.87076 | -0.16189 | 5016 ft | 259 kts | 156° |
| 2026-04-23 17:02 | 51.85284 | -0.15749 | 5080 ft | 265 kts | 182° |
| 2026-04-23 17:02 | 51.83465 | -0.16171 | 5731 ft | 270 kts | 181° |
| 2026-04-23 17:03 | 51.81646 | -0.15691 | 6598 ft | 266 kts | 155° |
| 2026-04-23 17:03 | 51.79954 | -0.14470 | 7428 ft | 267 kts | 151° |
| 2026-04-23 17:03 | 51.78236 | -0.13158 | 8234 ft | 271 kts | 151° |
| 2026-04-23 17:03 | 51.76609 | -0.11622 | 8961 ft | 272 kts | 136° |
| 2026-04-23 17:04 | 51.75500 | -0.09241 | 9655 ft | 271 kts | 110° |
| 2026-04-23 17:04 | 51.75184 | -0.06266 | 10380 ft | 273 kts | 86° |
| 2026-04-23 17:04 | 51.75426 | -0.03236 | 10938 ft | 282 kts | 81° |
| 2026-04-23 17:04 | 51.75765 | 0.00037 | 11252 ft | 301 kts | 81° |
| 2026-04-23 17:05 | 51.76099 | 0.03506 | 11489 ft | 320 kts | 81° |
| 2026-04-23 17:05 | 51.76430 | 0.07176 | 11747 ft | 339 kts | 82° |
| 2026-04-23 17:05 | 51.76762 | 0.11050 | 11998 ft | 357 kts | 82° |
| 2026-04-23 17:05 | 51.77097 | 0.15101 | 12246 ft | 372 kts | 82° |
| 2026-04-23 17:06 | 51.77438 | 0.19299 | 12723 ft | 379 kts | 82° |
| 2026-04-23 17:06 | 51.77784 | 0.23531 | 13319 ft | 381 kts | 82° |
| 2026-04-23 17:06 | 51.78132 | 0.27738 | 13908 ft | 383 kts | 82° |
| 2026-04-23 17:06 | 51.78480 | 0.32014 | 14462 ft | 386 kts | 82° |
| 2026-04-23 17:07 | 51.78824 | 0.36324 | 14947 ft | 389 kts | 82° |
| 2026-04-23 17:07 | 51.79169 | 0.40677 | 15427 ft | 393 kts | 83° |
| 2026-04-23 17:07 | 51.79520 | 0.45082 | 15927 ft | 397 kts | 83° |
| 2026-04-23 17:07 | 51.79869 | 0.49522 | 16447 ft | 401 kts | 83° |
| 2026-04-23 17:08 | 51.80221 | 0.54007 | 16973 ft | 405 kts | 83° |
| 2026-04-23 17:08 | 51.80577 | 0.58554 | 17514 ft | 409 kts | 83° |
| 2026-04-23 17:08 | 51.80931 | 0.63126 | 18026 ft | 413 kts | 83° |
| 2026-04-23 17:08 | 51.81469 | 0.67725 | 18493 ft | 419 kts | 77° |
| 2026-04-23 17:09 | 51.82176 | 0.72312 | 18967 ft | 423 kts | 77° |
| 2026-04-23 17:09 | 51.82901 | 0.76944 | 19389 ft | 427 kts | 77° |
| 2026-04-23 17:09 | 51.83640 | 0.81609 | 19823 ft | 431 kts | 76° |
| 2026-04-23 17:09 | 51.84483 | 0.86284 | 20234 ft | 435 kts | 75° |
| 2026-04-23 17:10 | 51.85338 | 0.90996 | 20641 ft | 438 kts | 75° |
| 2026-04-23 17:10 | 51.86201 | 0.95735 | 21052 ft | 442 kts | 76° |
| 2026-04-23 17:10 | 51.87067 | 1.00468 | 21446 ft | 445 kts | 76° |
| 2026-04-23 17:10 | 51.87956 | 1.05360 | 21848 ft | 448 kts | 76° |
| 2026-04-23 17:11 | 51.88834 | 1.10207 | 22254 ft | 451 kts | 76° |
| 2026-04-23 17:11 | 51.89718 | 1.15109 | 22662 ft | 454 kts | 76° |
| 2026-04-23 17:11 | 51.90608 | 1.20041 | 23081 ft | 457 kts | 76° |
| 2026-04-23 17:11 | 51.91501 | 1.25007 | 23498 ft | 460 kts | 76° |
| 2026-04-23 17:12 | 51.92384 | 1.29952 | 23912 ft | 463 kts | 77° |
| 2026-04-23 17:12 | 51.93288 | 1.35035 | 24269 ft | 466 kts | 77° |
| 2026-04-23 17:12 | 51.94175 | 1.40027 | 24613 ft | 468 kts | 77° |
| 2026-04-23 17:12 | 51.95085 | 1.45162 | 25002 ft | 469 kts | 77° |
| 2026-04-23 17:13 | 51.95978 | 1.50228 | 25474 ft | 467 kts | 77° |
| 2026-04-23 17:13 | 51.96871 | 1.55296 | 25950 ft | 465 kts | 77° |
| 2026-04-23 17:13 | 51.97750 | 1.60320 | 26419 ft | 464 kts | 77° |
| 2026-04-23 17:13 | 51.98633 | 1.65346 | 26879 ft | 462 kts | 78° |
| 2026-04-23 17:14 | 51.99474 | 1.70385 | 27351 ft | 460 kts | 79° |
| 2026-04-23 17:14 | 52.00263 | 1.75413 | 27806 ft | 459 kts | 80° |
| 2026-04-23 17:14 | 52.01045 | 1.80425 | 28250 ft | 458 kts | 80° |
| 2026-04-23 17:14 | 52.01814 | 1.85353 | 28706 ft | 456 kts | 80° |
| 2026-04-23 17:15 | 52.02590 | 1.90361 | 29155 ft | 455 kts | 81° |
| 2026-04-23 17:15 | 52.03355 | 1.95337 | 29588 ft | 454 kts | 81° |
| 2026-04-23 17:15 | 52.04120 | 2.00312 | 29960 ft | 454 kts | 81° |
| 2026-04-23 17:15 | 52.04880 | 2.05273 | 30359 ft | 453 kts | 81° |
| 2026-04-23 17:16 | 52.05638 | 2.10238 | 30722 ft | 452 kts | 81° |
| 2026-04-23 17:16 | 52.06387 | 2.15185 | 31034 ft | 451 kts | 81° |
| 2026-04-23 17:16 | 52.07141 | 2.20134 | 31355 ft | 450 kts | 81° |
| 2026-04-23 17:16 | 52.07887 | 2.25074 | 31666 ft | 449 kts | 81° |
| 2026-04-23 17:17 | 52.08632 | 2.30005 | 31965 ft | 449 kts | 81° |
| 2026-04-23 17:17 | 52.09371 | 2.34928 | 32259 ft | 448 kts | 81° |
| 2026-04-23 17:17 | 52.09868 | 2.38250 | 32445 ft | 447 kts | 81° |
| 2026-04-23 17:17 | 52.10848 | 2.44756 | 32812 ft | 446 kts | 81° |
| 2026-04-23 17:18 | 52.12536 | 2.54489 | 33313 ft | 447 kts | 78° |
| 2026-04-23 17:18 | 52.13463 | 2.59332 | 33555 ft | 447 kts | 77° |
| 2026-04-23 17:18 | 52.14385 | 2.64152 | 33785 ft | 446 kts | 78° |
| 2026-04-23 17:19 | 52.15300 | 2.68965 | 34023 ft | 446 kts | 78° |
| 2026-04-23 17:19 | 52.16215 | 2.73791 | 34242 ft | 445 kts | 78° |
| 2026-04-23 17:19 | 52.16832 | 2.77052 | 34384 ft | 445 kts | 78° |
| 2026-04-23 17:19 | 52.17729 | 2.81808 | 34572 ft | 445 kts | 78° |
| 2026-04-23 17:20 | 52.18634 | 2.86625 | 34751 ft | 444 kts | 78° |
| 2026-04-23 17:20 | 52.20439 | 2.96259 | 35039 ft | 444 kts | 78° |
| 2026-04-23 17:21 | 52.22227 | 3.05905 | 35384 ft | 443 kts | 78° |
| 2026-04-23 17:21 | 52.23119 | 3.10709 | 35497 ft | 444 kts | 78° |
| 2026-04-23 17:21 | 52.24901 | 3.20350 | 35482 ft | 444 kts | 78° |
| 2026-04-23 17:22 | 52.26792 | 3.35038 | 35465 ft | 440 kts | 85° |
| 2026-04-23 17:23 | 52.28331 | 3.49810 | 35459 ft | 440 kts | 84° |
| 2026-04-23 17:24 | 52.29863 | 3.64591 | 35468 ft | 439 kts | 84° |
| 2026-04-23 17:24 | 52.31388 | 3.79368 | 35450 ft | 440 kts | 85° |
| 2026-04-23 17:25 | 52.32895 | 3.94154 | 35456 ft | 440 kts | 84° |
| 2026-04-23 17:26 | 52.34876 | 4.13899 | 35463 ft | 440 kts | 84° |
| 2026-04-23 17:27 | 52.36326 | 4.28655 | 35448 ft | 440 kts | 85° |
| 2026-04-23 17:27 | 52.37274 | 4.38544 | 35448 ft | 440 kts | 85° |
| 2026-04-23 17:28 | 52.38227 | 4.48402 | 35449 ft | 440 kts | 85° |
| 2026-04-23 17:28 | 52.39172 | 4.58297 | 35438 ft | 440 kts | 85° |
| 2026-04-23 17:29 | 52.40117 | 4.68199 | 35442 ft | 440 kts | 85° |
| 2026-04-23 17:30 | 52.41524 | 4.83047 | 35441 ft | 440 kts | 85° |
| 2026-04-23 17:30 | 52.42902 | 4.97979 | 35428 ft | 442 kts | 85° |
| 2026-04-23 17:31 | 52.43812 | 5.07940 | 35436 ft | 442 kts | 85° |
| 2026-04-23 17:31 | 52.44720 | 5.17909 | 35437 ft | 442 kts | 85° |
| 2026-04-23 17:32 | 52.45612 | 5.27878 | 35437 ft | 442 kts | 85° |
| 2026-04-23 17:32 | 52.46478 | 5.37794 | 35438 ft | 442 kts | 85° |
| 2026-04-23 17:33 | 52.47361 | 5.47772 | 35438 ft | 442 kts | 85° |
| 2026-04-23 17:33 | 52.48237 | 5.57748 | 35436 ft | 442 kts | 85° |
| 2026-04-23 17:34 | 52.49094 | 5.67717 | 35435 ft | 442 kts | 85° |
| 2026-04-23 17:35 | 52.50366 | 5.82686 | 35425 ft | 441 kts | 85° |
| 2026-04-23 17:35 | 52.51625 | 5.97673 | 35426 ft | 441 kts | 85° |
| 2026-04-23 17:36 | 52.52452 | 6.07661 | 35418 ft | 441 kts | 85° |
| 2026-04-23 17:36 | 52.53260 | 6.17590 | 35419 ft | 441 kts | 85° |
| 2026-04-23 17:37 | 52.54068 | 6.27579 | 35412 ft | 441 kts | 85° |
| 2026-04-23 17:38 | 52.55255 | 6.42568 | 35401 ft | 441 kts | 85° |
| 2026-04-23 17:38 | 52.56043 | 6.52567 | 35398 ft | 441 kts | 85° |
| 2026-04-23 17:39 | 52.56821 | 6.62568 | 35395 ft | 441 kts | 85° |
| 2026-04-23 17:39 | 52.57592 | 6.72598 | 35385 ft | 442 kts | 85° |
| 2026-04-23 17:40 | 52.58355 | 6.82652 | 35388 ft | 443 kts | 85° |
| 2026-04-23 17:40 | 52.59121 | 6.92715 | 35386 ft | 444 kts | 85° |
| 2026-04-23 17:41 | 52.59866 | 7.02741 | 35377 ft | 444 kts | 85° |
| 2026-04-23 17:41 | 52.60973 | 7.17830 | 35377 ft | 444 kts | 85° |
| 2026-04-23 17:42 | 52.62048 | 7.32978 | 35380 ft | 443 kts | 85° |
| 2026-04-23 17:43 | 52.62768 | 7.43062 | 35377 ft | 443 kts | 85° |
| 2026-04-23 17:43 | 52.63474 | 7.53097 | 35369 ft | 444 kts | 85° |
| 2026-04-23 17:44 | 52.64168 | 7.63148 | 35365 ft | 443 kts | 85° |
| 2026-04-23 17:44 | 52.65196 | 7.78240 | 35364 ft | 443 kts | 85° |
| 2026-04-23 17:45 | 52.66204 | 7.93345 | 35350 ft | 441 kts | 85° |
| 2026-04-23 17:46 | 52.67192 | 8.08484 | 35344 ft | 443 kts | 84° |
| 2026-04-23 17:46 | 52.67839 | 8.18558 | 35346 ft | 441 kts | 84° |
| 2026-04-23 17:47 | 52.68486 | 8.28633 | 35341 ft | 441 kts | 84° |
| 2026-04-23 17:48 | 52.69422 | 8.43745 | 35341 ft | 442 kts | 85° |
| 2026-04-23 17:48 | 52.70045 | 8.53834 | 35341 ft | 442 kts | 85° |
| 2026-04-23 17:49 | 52.70661 | 8.63970 | 35342 ft | 445 kts | 84° |
| 2026-04-23 17:49 | 52.71267 | 8.74164 | 35335 ft | 447 kts | 84° |
| 2026-04-23 17:50 | 52.71866 | 8.84296 | 35336 ft | 446 kts | 84° |
| 2026-04-23 17:50 | 52.72739 | 8.99574 | 35322 ft | 446 kts | 84° |
| 2026-04-23 17:51 | 52.73310 | 9.09784 | 35322 ft | 446 kts | 83° |
| 2026-04-23 17:52 | 52.74165 | 9.25045 | 35318 ft | 444 kts | 83° |
| 2026-04-23 17:52 | 52.74990 | 9.40314 | 35296 ft | 445 kts | 84° |
| 2026-04-23 17:53 | 52.75801 | 9.55589 | 35291 ft | 446 kts | 83° |
| 2026-04-23 17:54 | 52.76322 | 9.65763 | 35284 ft | 446 kts | 84° |
| 2026-04-23 17:54 | 52.77098 | 9.81080 | 35291 ft | 446 kts | 84° |
| 2026-04-23 17:55 | 52.77847 | 9.96373 | 35294 ft | 445 kts | 84° |
| 2026-04-23 17:56 | 52.78348 | 10.06589 | 35287 ft | 445 kts | 82° |
| 2026-04-23 17:56 | 52.80493 | 10.15918 | 35279 ft | 438 kts | 52° |
| 2026-04-23 17:56 | 52.82530 | 10.19528 | 35289 ft | 434 kts | 38° |
| 2026-04-23 17:57 | 52.86948 | 10.26304 | 35283 ft | 439 kts | 56° |
| 2026-04-23 17:57 | 52.88600 | 10.35981 | 35270 ft | 448 kts | 89° |
| 2026-04-23 17:58 | 52.88420 | 10.41109 | 35289 ft | 448 kts | 92° |
| 2026-04-23 17:58 | 52.88256 | 10.51423 | 35282 ft | 447 kts | 87° |
| 2026-04-23 17:59 | 52.88428 | 10.61705 | 35267 ft | 447 kts | 86° |
| 2026-04-23 17:59 | 52.88628 | 10.71980 | 35262 ft | 446 kts | 86° |
| 2026-04-23 18:00 | 52.88818 | 10.82262 | 35260 ft | 446 kts | 86° |
| 2026-04-23 18:00 | 52.88994 | 10.92544 | 35253 ft | 447 kts | 86° |
| 2026-04-23 18:01 | 52.89136 | 11.01085 | 35246 ft | 447 kts | 86° |
| 2026-04-23 18:01 | 52.89299 | 11.11386 | 35241 ft | 447 kts | 86° |
| 2026-04-23 18:02 | 52.89454 | 11.21690 | 35243 ft | 447 kts | 85° |
| 2026-04-23 18:02 | 52.89599 | 11.31973 | 35239 ft | 446 kts | 86° |
| 2026-04-23 18:03 | 52.89734 | 11.42269 | 35234 ft | 448 kts | 86° |
| 2026-04-23 18:03 | 52.89859 | 11.52601 | 35227 ft | 448 kts | 86° |
| 2026-04-23 18:04 | 52.89977 | 11.62911 | 35226 ft | 448 kts | 86° |
| 2026-04-23 18:04 | 52.90087 | 11.73212 | 35234 ft | 447 kts | 85° |
| 2026-04-23 18:05 | 52.90188 | 11.83519 | 35224 ft | 447 kts | 85° |
| 2026-04-23 18:05 | 52.90279 | 11.93819 | 35220 ft | 447 kts | 85° |
| 2026-04-23 18:06 | 52.90359 | 12.04072 | 35213 ft | 447 kts | 85° |
| 2026-04-23 18:06 | 52.90433 | 12.14380 | 35210 ft | 447 kts | 86° |
| 2026-04-23 18:07 | 52.90500 | 12.24676 | 35213 ft | 447 kts | 85° |
| 2026-04-23 18:07 | 52.90556 | 12.34992 | 35198 ft | 448 kts | 85° |
| 2026-04-23 18:08 | 52.90595 | 12.45304 | 35188 ft | 448 kts | 85° |
| 2026-04-23 18:08 | 52.90636 | 12.55616 | 35189 ft | 448 kts | 85° |
| 2026-04-23 18:09 | 52.90659 | 12.65870 | 35185 ft | 448 kts | 85° |
| 2026-04-23 18:09 | 52.90682 | 12.76186 | 35200 ft | 448 kts | 85° |
| 2026-04-23 18:10 | 52.90695 | 12.86559 | 35188 ft | 447 kts | 85° |
| 2026-04-23 18:10 | 52.90698 | 12.96860 | 35187 ft | 447 kts | 85° |
| 2026-04-23 18:11 | 52.90691 | 13.07161 | 35187 ft | 447 kts | 85° |
| 2026-04-23 18:11 | 52.90674 | 13.17395 | 35187 ft | 447 kts | 85° |
| 2026-04-23 18:12 | 52.90651 | 13.27706 | 35204 ft | 447 kts | 85° |
| 2026-04-23 18:12 | 52.90611 | 13.37989 | 35187 ft | 446 kts | 85° |
| 2026-04-23 18:13 | 52.90572 | 13.48249 | 35185 ft | 445 kts | 85° |
| 2026-04-23 18:13 | 52.90519 | 13.58502 | 35186 ft | 446 kts | 85° |
| 2026-04-23 18:14 | 52.90460 | 13.68790 | 35183 ft | 446 kts | 85° |
| 2026-04-23 18:14 | 52.90385 | 13.79069 | 35201 ft | 446 kts | 84° |
| 2026-04-23 18:15 | 52.90307 | 13.89306 | 35178 ft | 444 kts | 84° |
| 2026-04-23 18:15 | 52.90210 | 13.99545 | 35176 ft | 443 kts | 85° |
| 2026-04-23 18:16 | 52.90123 | 14.09679 | 35176 ft | 443 kts | 85° |
| 2026-04-23 18:16 | 52.90020 | 14.19909 | 35164 ft | 445 kts | 84° |
| 2026-04-23 18:17 | 52.89552 | 14.30167 | 35185 ft | 454 kts | 96° |
| 2026-04-23 18:17 | 52.88819 | 14.35266 | 35180 ft | 456 kts | 97° |
| 2026-04-23 18:17 | 52.87285 | 14.45466 | 35168 ft | 457 kts | 97° |
| 2026-04-23 18:18 | 52.85809 | 14.55712 | 35140 ft | 456 kts | 96° |
| 2026-04-23 18:18 | 52.85082 | 14.60794 | 34792 ft | 453 kts | 96° |
| 2026-04-23 18:18 | 52.84355 | 14.65869 | 34511 ft | 453 kts | 96° |
| 2026-04-23 18:19 | 52.83626 | 14.70929 | 34263 ft | 454 kts | 96° |
| 2026-04-23 18:19 | 52.82891 | 14.76002 | 34003 ft | 455 kts | 96° |
| 2026-04-23 18:19 | 52.82149 | 14.81093 | 33729 ft | 455 kts | 96° |
| 2026-04-23 18:19 | 52.81408 | 14.86192 | 33462 ft | 456 kts | 96° |
| 2026-04-23 18:20 | 52.80663 | 14.91275 | 33196 ft | 457 kts | 97° |
| 2026-04-23 18:20 | 52.79911 | 14.96396 | 32930 ft | 458 kts | 97° |
| 2026-04-23 18:20 | 52.79161 | 15.01510 | 32558 ft | 458 kts | 97° |
| 2026-04-23 18:20 | 52.78408 | 15.06617 | 32013 ft | 458 kts | 97° |
| 2026-04-23 18:21 | 52.77649 | 15.11750 | 31418 ft | 460 kts | 97° |
| 2026-04-23 18:21 | 52.76890 | 15.16901 | 30798 ft | 469 kts | 97° |
| 2026-04-23 18:21 | 52.76109 | 15.22175 | 30152 ft | 474 kts | 97° |
| 2026-04-23 18:21 | 52.75323 | 15.27402 | 29400 ft | 477 kts | 97° |
| 2026-04-23 18:22 | 52.74519 | 15.32730 | 28616 ft | 480 kts | 97° |
| 2026-04-23 18:22 | 52.73717 | 15.38102 | 27848 ft | 483 kts | 97° |
| 2026-04-23 18:22 | 52.72911 | 15.43450 | 27089 ft | 485 kts | 98° |
| 2026-04-23 18:22 | 52.72087 | 15.48889 | 26343 ft | 487 kts | 98° |
| 2026-04-23 18:23 | 52.71525 | 15.52568 | 25879 ft | 489 kts | 98° |
| 2026-04-23 18:23 | 52.69582 | 15.65311 | 24303 ft | 495 kts | 98° |
| 2026-04-23 18:24 | 52.67910 | 15.76127 | 22864 ft | 483 kts | 98° |
| 2026-04-23 18:24 | 52.67087 | 15.81489 | 22070 ft | 478 kts | 98° |
| 2026-04-23 18:24 | 52.66272 | 15.86774 | 21292 ft | 473 kts | 99° |
| 2026-04-23 18:25 | 52.64652 | 15.97159 | 19804 ft | 463 kts | 99° |
| 2026-04-23 18:25 | 52.63847 | 16.02281 | 19087 ft | 459 kts | 99° |
| 2026-04-23 18:25 | 52.63053 | 16.07328 | 18393 ft | 454 kts | 99° |
| 2026-04-23 18:25 | 52.62259 | 16.12347 | 17596 ft | 448 kts | 99° |
| 2026-04-23 18:26 | 52.61492 | 16.17194 | 16879 ft | 440 kts | 99° |
| 2026-04-23 18:26 | 52.60727 | 16.22035 | 16189 ft | 432 kts | 99° |
| 2026-04-23 18:26 | 52.59976 | 16.26782 | 15495 ft | 426 kts | 99° |
| 2026-04-23 18:26 | 52.59229 | 16.31472 | 14819 ft | 422 kts | 100° |
| 2026-04-23 18:27 | 52.58487 | 16.36114 | 14160 ft | 418 kts | 100° |
| 2026-04-23 18:27 | 52.57755 | 16.40707 | 13430 ft | 413 kts | 100° |
| 2026-04-23 18:27 | 52.57023 | 16.45270 | 12660 ft | 410 kts | 101° |
| 2026-04-23 18:27 | 52.56303 | 16.49763 | 11981 ft | 403 kts | 101° |
| 2026-04-23 18:28 | 52.55590 | 16.54166 | 11424 ft | 394 kts | 101° |
| 2026-04-23 18:28 | 52.54891 | 16.58452 | 10896 ft | 383 kts | 101° |
| 2026-04-23 18:28 | 52.54212 | 16.62621 | 10370 ft | 369 kts | 101° |
| 2026-04-23 18:28 | 52.53560 | 16.66611 | 9924 ft | 354 kts | 101° |
| 2026-04-23 18:29 | 52.52937 | 16.70419 | 9514 ft | 338 kts | 101° |
| 2026-04-23 18:29 | 52.52341 | 16.74065 | 9152 ft | 321 kts | 101° |
| 2026-04-23 18:29 | 52.51774 | 16.77525 | 8815 ft | 306 kts | 101° |
| 2026-04-23 18:29 | 52.51229 | 16.80829 | 8576 ft | 296 kts | 100° |
| 2026-04-23 18:30 | 52.50698 | 16.84069 | 8175 ft | 292 kts | 100° |
| 2026-04-23 18:30 | 52.50170 | 16.87286 | 7742 ft | 291 kts | 100° |
| 2026-04-23 18:30 | 52.49645 | 16.90484 | 7333 ft | 290 kts | 100° |
| 2026-04-23 18:30 | 52.49119 | 16.93675 | 6929 ft | 289 kts | 100° |
| 2026-04-23 18:31 | 52.48593 | 16.96853 | 6541 ft | 286 kts | 100° |
| 2026-04-23 18:31 | 52.48076 | 16.99962 | 6293 ft | 278 kts | 101° |
| 2026-04-23 18:31 | 52.47574 | 17.02975 | 6118 ft | 268 kts | 100° |
| 2026-04-23 18:31 | 52.47093 | 17.05854 | 5903 ft | 258 kts | 101° |
| 2026-04-23 18:32 | 52.46625 | 17.08661 | 5646 ft | 252 kts | 101° |
| 2026-04-23 18:32 | 52.46118 | 17.11413 | 5320 ft | 251 kts | 103° |
| 2026-04-23 18:32 | 52.45581 | 17.14119 | 4972 ft | 249 kts | 104° |
| 2026-04-23 18:32 | 52.44880 | 17.16695 | 4643 ft | 247 kts | 126° |
| 2026-04-23 18:33 | 52.43607 | 17.18495 | 4338 ft | 241 kts | 154° |
| 2026-04-23 18:33 | 52.42010 | 17.19178 | 3924 ft | 236 kts | 182° |
| 2026-04-23 18:33 | 52.40427 | 17.18704 | 3533 ft | 229 kts | 207° |
| 2026-04-23 18:33 | 52.39137 | 17.17286 | 3175 ft | 222 kts | 229° |
| 2026-04-23 18:34 | 52.38096 | 17.15454 | 2974 ft | 215 kts | 233° |
| 2026-04-23 18:34 | 52.37134 | 17.13710 | 2934 ft | 196 kts | 233° |
| 2026-04-23 18:34 | 52.36447 | 17.11954 | 2922 ft | 181 kts | 263° |
| 2026-04-23 18:34 | 52.36529 | 17.10006 | 2960 ft | 171 kts | 293° |
| 2026-04-23 18:35 | 52.36971 | 17.08209 | 2983 ft | 170 kts | 297° |
| 2026-04-23 18:35 | 52.37431 | 17.06395 | 2994 ft | 171 kts | 296° |
| 2026-04-23 18:35 | 52.37838 | 17.04584 | 2906 ft | 172 kts | 294° |
| 2026-04-23 18:35 | 52.38213 | 17.02712 | 2705 ft | 170 kts | 292° |
| 2026-04-23 18:36 | 52.38553 | 17.00964 | 2563 ft | 151 kts | 292° |
| 2026-04-23 18:36 | 52.38857 | 16.99398 | 2353 ft | 141 kts | 292° |
| 2026-04-23 18:36 | 52.39153 | 16.97872 | 2126 ft | 140 kts | 292° |
| 2026-04-23 18:36 | 52.39445 | 16.96364 | 1922 ft | 139 kts | 292° |
| 2026-04-23 18:37 | 52.39735 | 16.94867 | 1720 ft | 139 kts | 292° |
| 2026-04-23 18:37 | 52.40026 | 16.93367 | 1510 ft | 138 kts | 292° |
| 2026-04-23 18:37 | 52.40329 | 16.91869 | 1270 ft | 138 kts | 291° |
| 2026-04-23 18:37 | 52.40623 | 16.90375 | 1114 ft | 138 kts | 290° |
| 2026-04-23 18:38 | 52.40906 | 16.88884 | 920 ft | 138 kts | 289° |
| 2026-04-23 18:38 | 52.41180 | 16.87383 | 747 ft | 138 kts | 289° |
| 2026-04-23 18:38 | 52.41468 | 16.85892 | 586 ft | 136 kts | 289° |
| 2026-04-23 18:38 | 52.41760 | 16.84406 | 392 ft | 137 kts | 289° |
| 2026-04-23 18:39 | 52.42035 | 16.83001 | 292 ft | 103 kts | 288° |
| 2026-04-23 18:39 | 52.42179 | 16.82232 | 299 ft | 42 kts | 288° |
| 2026-04-23 18:39 | 52.42257 | 16.81812 | 296 ft | 35 kts | 284° |
| 2026-04-23 18:39 | 52.42304 | 16.81493 | 295 ft | 25 kts | 265° |
| 2026-04-23 18:40 | 52.42281 | 16.81272 | 295 ft | 11 kts | 259° |
| 2026-04-23 18:40 | 52.42254 | 16.81155 | 298 ft | 12 kts | 206° |
| 2026-04-23 18:40 | 52.42209 | 16.81193 | 295 ft | 13 kts | 112° |
| 2026-04-23 18:40 | 52.42194 | 16.81272 | 293 ft | 5 kts | 108° |
| 2026-04-23 18:41 | 52.42177 | 16.81363 | 293 ft | 8 kts | 108° |
| 2026-04-23 18:41 | 52.42161 | 16.81445 | 296 ft | 7 kts | 108° |
| 2026-04-23 18:41 | 52.42144 | 16.81531 | 297 ft | 9 kts | 109° |
| 2026-04-23 18:41 | 52.42124 | 16.81640 | 294 ft | 11 kts | 108° |
| 2026-04-23 18:42 | 52.42109 | 16.81713 | 296 ft | 9 kts | 109° |
| 2026-04-23 18:42 | 52.42088 | 16.81821 | 295 ft | 11 kts | 108° |
| 2026-04-23 18:42 | 52.42064 | 16.81952 | 294 ft | 13 kts | 108° |
| 2026-04-23 18:42 | 52.42035 | 16.82102 | 294 ft | 15 kts | 109° |
| 2026-04-23 18:43 | 52.42002 | 16.82266 | 295 ft | 16 kts | 109° |
| 2026-04-23 18:43 | 52.41968 | 16.82440 | 297 ft | 16 kts | 108° |
| 2026-04-23 18:43 | 52.41933 | 16.82623 | 293 ft | 17 kts | 108° |
| 2026-04-23 18:43 | 52.41899 | 16.82803 | 298 ft | 13 kts | 108° |
| 2026-04-23 18:44 | 52.41854 | 16.82915 | 295 ft | 13 kts | 175° |
| 2026-04-23 18:44 | 52.41769 | 16.82875 | 296 ft | 12 kts | 199° |
| 2026-04-23 18:44 | 52.41708 | 16.82846 | 293 ft | 7 kts | 184° |
| 2026-04-23 18:44 | 52.41658 | 16.82844 | 294 ft | 8 kts | 192° |
| 2026-04-23 18:45 | 52.41605 | 16.82825 | 295 ft | 5 kts | 194° |
| 2026-04-23 18:45 | 52.41581 | 16.82817 | 295 ft | 0 kts | 194° |
| 2026-04-23 18:47 | 52.41581 | 16.82816 | 295 ft | 0 kts | 193° |